Terminal Aerodrome Forecast
Issued by NWS Greer, SC

Home | Current Version | Previous Version | Text Only | Print | Product List | Glossary On
Versions: 1 2 3 4 5 6 7 8 9 10 11 12 13 14
000
FTUS42 KGSP 161740
TAFAVL
TAF
KAVL 161740Z 1618/1718 18006KT P6SM BKN200
     FM170000 31010KT 5SM -SN SCT015 OVC035
      TEMPO 1702/1706 2SM -SN SCT007 OVC015
     FM170800 34014KT P6SM OVC050 PROB30 1708/1710 4SM -SN OVC025
     FM171300 34013KT P6SM SCT250=

USA.gov is the U.S. government's official web portal to all federal, state and local government web resources and services.